Time;durP1;ratioP1;P1;durP2;ratioP2;P2;SDS_P1;SDS_P2;PMS_P1;PMS_P2;Temp;Humidity;BMP_temperature;BMP_pressure;BME280_temperature;BME280_humidity;BME280_pressure;Samples;Min_cycle;Max_cycle;Signal;HPM_P1;HPM_P2
2022/05/04 00:01:30;;;;;;;1.00;0.95;;;11.80;99.90;;;;;;5169572;28;20247;-76
2022/05/04 00:04:04;;;;;;;0.52;0.52;;;11.80;99.90;;;;;;5170060;28;20034;-77
2022/05/04 00:06:35;;;;;;;0.60;0.60;;;11.80;99.90;;;;;;5157378;28;20041;-80
2022/05/04 00:09:06;;;;;;;0.90;0.90;;;11.80;99.90;;;;;;5185980;28;20068;-76
2022/05/04 00:11:37;;;;;;;0.60;0.60;;;11.80;99.90;;;;;;5188157;28;20034;-79
2022/05/04 00:14:09;;;;;;;0.60;0.60;;;11.80;99.90;;;;;;5188153;28;20029;-80
2022/05/04 00:16:40;;;;;;;0.70;0.70;;;11.80;99.90;;;;;;5169500;28;20034;-79
2022/05/04 00:19:14;;;;;;;0.52;0.52;;;11.90;99.90;;;;;;5166486;28;20040;-77
2022/05/04 00:21:48;;;;;;;0.63;0.63;;;11.90;99.90;;;;;;5181003;28;20036;-79
2022/05/04 00:24:22;;;;;;;0.70;0.70;;;11.90;99.90;;;;;;5186248;28;20030;-76
2022/05/04 00:26:57;;;;;;;0.80;0.80;;;12.00;99.90;;;;;;5184665;28;20052;-77
2022/05/04 00:29:33;;;;;;;1.77;1.67;;;12.00;99.90;;;;;;5153018;28;20047;-76
2022/05/04 00:32:07;;;;;;;0.65;0.65;;;12.00;99.90;;;;;;5158346;28;20041;-77
2022/05/04 00:34:41;;;;;;;0.82;0.82;;;12.10;99.90;;;;;;5167419;28;20026;-79
2022/05/04 00:37:12;;;;;;;0.82;0.82;;;12.10;99.90;;;;;;5165257;28;20053;-77
2022/05/04 00:39:47;;;;;;;0.60;0.60;;;12.00;99.90;;;;;;5152540;28;20046;-75
2022/05/04 00:42:20;;;;;;;0.70;0.70;;;12.00;99.90;;;;;;5183124;28;20034;-77
2022/05/04 00:44:54;;;;;;;1.50;1.40;;;11.90;99.90;;;;;;5187928;28;20219;-75
2022/05/04 00:47:26;;;;;;;1.05;1.05;;;11.90;99.90;;;;;;5188396;28;20270;-80
2022/05/04 00:50:04;;;;;;;1.25;1.25;;;11.90;99.90;;;;;;5188783;28;20025;-77
2022/05/04 00:52:42;;;;;;;0.95;0.95;;;12.00;99.90;;;;;;5189421;28;20028;-76
2022/05/04 00:55:18;;;;;;;0.80;0.80;;;12.00;99.90;;;;;;5189665;28;20041;-79
2022/05/04 01:00:39;;;;;;;0.85;0.85;;;11.90;99.90;;;;;;5185710;28;20254;-78
2022/05/04 01:03:10;;;;;;;0.80;0.80;;;11.90;99.90;;;;;;5161650;28;20041;-76
2022/05/04 01:05:47;;;;;;;0.70;0.70;;;11.90;99.90;;;;;;5158209;28;20057;-76
2022/05/04 01:08:26;;;;;;;1.17;1.17;;;11.80;99.90;;;;;;5169714;28;20028;-78
2022/05/04 01:11:00;;;;;;;1.65;1.45;;;11.70;99.90;;;;;;5168702;28;20049;-77
2022/05/04 01:13:33;;;;;;;1.90;1.80;;;11.70;99.90;;;;;;5188293;28;20885;-77
2022/05/04 01:16:05;;;;;;;1.05;1.02;;;11.70;99.90;;;;;;5172089;28;20022;-76
2022/05/04 01:18:36;;;;;;;0.57;0.57;;;11.60;99.90;;;;;;5189101;28;20040;-77
2022/05/04 01:21:10;;;;;;;0.70;0.70;;;11.50;99.90;;;;;;5186673;28;20018;-78
2022/05/04 01:23:46;;;;;;;1.73;1.63;;;11.50;99.90;;;;;;5191955;28;20034;-78
2022/05/04 01:26:18;;;;;;;0.60;0.60;;;11.40;99.90;;;;;;5172276;28;20064;-79
2022/05/04 01:28:51;;;;;;;1.10;1.10;;;11.40;99.90;;;;;;5194308;28;20038;-78
2022/05/04 01:31:27;;;;;;;1.60;1.50;;;11.30;99.90;;;;;;5192033;28;20293;-78
2022/05/04 01:34:02;;;;;;;1.05;1.05;;;11.20;99.90;;;;;;5194557;28;20030;-76
2022/05/04 01:36:36;;;;;;;1.00;1.00;;;11.10;99.90;;;;;;5194455;28;20040;-79
2022/05/04 01:39:09;;;;;;;0.82;0.82;;;11.10;99.90;;;;;;5190398;28;20048;-80
2022/05/04 01:44:33;;;;;;;1.10;1.10;;;11.00;99.90;;;;;;5186909;28;20030;-78
2022/05/04 01:47:05;;;;;;;1.35;1.35;;;11.00;99.90;;;;;;5186821;28;20022;-76
2022/05/04 01:49:37;;;;;;;0.80;0.80;;;10.90;99.90;;;;;;5197307;28;20064;-79
2022/05/04 01:52:15;;;;;;;0.73;0.73;;;10.80;99.90;;;;;;5190996;28;20022;-79
2022/05/04 01:54:48;;;;;;;0.70;0.70;;;10.80;99.90;;;;;;5185595;28;20053;-77
2022/05/04 01:57:20;;;;;;;0.85;0.85;;;10.80;99.90;;;;;;5177762;28;20048;-77
2022/05/04 01:59:54;;;;;;;0.95;0.80;;;10.80;99.90;;;;;;5207142;28;20035;-78
2022/05/04 02:02:29;;;;;;;0.83;0.83;;;10.80;99.90;;;;;;5207466;28;20025;-80
2022/05/04 02:05:01;;;;;;;0.77;0.77;;;10.80;99.90;;;;;;5168691;28;20278;-76
2022/05/04 02:07:37;;;;;;;0.70;0.70;;;10.80;99.90;;;;;;5166608;28;20026;-80
2022/05/04 02:10:15;;;;;;;0.75;0.75;;;10.70;99.90;;;;;;5181132;28;20038;-77
2022/05/04 02:12:48;;;;;;;0.80;0.80;;;10.70;99.90;;;;;;5149765;28;20454;-79
2022/05/04 02:15:21;;;;;;;0.83;0.83;;;10.70;99.90;;;;;;5152962;28;20036;-78
2022/05/04 02:17:54;;;;;;;0.60;0.60;;;10.70;99.90;;;;;;5148186;28;20278;-79
2022/05/04 02:20:28;;;;;;;1.30;1.30;;;10.70;99.90;;;;;;5171242;28;20029;-78
2022/05/04 02:22:59;;;;;;;0.90;0.90;;;10.60;99.90;;;;;;5185667;28;20032;-78
2022/05/04 02:25:38;;;;;;;0.80;0.80;;;10.60;99.90;;;;;;5168273;28;20267;-78
2022/05/04 02:28:11;;;;;;;0.75;0.75;;;10.60;99.90;;;;;;5163512;28;20036;-80
2022/05/04 02:30:44;;;;;;;0.80;0.80;;;10.70;99.90;;;;;;5166792;28;20029;-79
2022/05/04 02:33:18;;;;;;;1.20;1.20;;;10.70;99.90;;;;;;5167169;28;20042;-79
2022/05/04 02:38:39;;;;;;;0.65;0.65;;;10.80;99.90;;;;;;5183946;28;20032;-78
2022/05/04 02:41:20;;;;;;;0.77;0.77;;;10.90;99.90;;;;;;5174961;28;20429;-79
2022/05/04 02:43:55;;;;;;;1.10;1.10;;;10.90;99.90;;;;;;5163031;28;20045;-79
2022/05/04 02:46:35;;;;;;;0.77;0.77;;;11.00;99.90;;;;;;5146052;28;20038;-80
2022/05/04 02:49:10;;;;;;;1.00;1.00;;;11.00;99.90;;;;;;5166910;28;20036;-76
2022/05/04 02:51:41;;;;;;;0.80;0.80;;;11.00;99.90;;;;;;5186967;28;20476;-75
2022/05/04 02:54:13;;;;;;;1.15;1.15;;;11.00;99.90;;;;;;5189658;28;20026;-76
2022/05/04 02:56:46;;;;;;;1.00;1.00;;;11.00;99.90;;;;;;5190684;28;20029;-79
2022/05/04 02:59:18;;;;;;;1.25;1.25;;;11.00;99.90;;;;;;5186186;28;20022;-78
2022/05/04 03:04:38;;;;;;;0.95;0.95;;;11.10;99.90;;;;;;5176880;28;20076;-78
2022/05/04 03:07:12;;;;;;;0.70;0.70;;;11.20;99.90;;;;;;5179268;28;20466;-78
2022/05/04 03:09:44;;;;;;;0.88;0.88;;;11.20;99.90;;;;;;5151948;28;20506;-77
2022/05/04 03:12:15;;;;;;;1.00;1.00;;;11.20;99.90;;;;;;5148391;28;20027;-78
2022/05/04 03:14:49;;;;;;;0.68;0.68;;;11.10;99.90;;;;;;5165658;28;20030;-77
2022/05/04 03:17:25;;;;;;;0.90;0.90;;;11.20;99.90;;;;;;5176188;28;20029;-78
2022/05/04 03:20:03;;;;;;;0.80;0.80;;;11.20;99.90;;;;;;5168500;28;20046;-78
2022/05/04 03:22:37;;;;;;;1.00;1.00;;;11.20;99.90;;;;;;5186222;28;20018;-79
2022/05/04 03:25:09;;;;;;;0.80;0.80;;;11.30;99.90;;;;;;5184910;28;20044;-77
2022/05/04 03:27:40;;;;;;;0.90;0.90;;;11.30;99.90;;;;;;5172876;28;20459;-79
2022/05/04 03:30:14;;;;;;;1.23;1.23;;;11.30;99.90;;;;;;5176434;28;20052;-78
2022/05/04 03:32:46;;;;;;;0.82;0.82;;;11.30;99.90;;;;;;5175502;28;20034;-77
2022/05/04 03:35:17;;;;;;;0.70;0.70;;;11.30;99.90;;;;;;5176634;28;20044;-79
2022/05/04 03:37:48;;;;;;;1.00;1.00;;;11.30;99.90;;;;;;5193770;28;20025;-77
2022/05/04 03:40:19;;;;;;;0.85;0.85;;;11.30;99.90;;;;;;5193422;28;20030;-76
2022/05/04 03:42:53;;;;;;;0.70;0.70;;;11.30;99.90;;;;;;5192198;28;20046;-77
2022/05/04 03:45:27;;;;;;;0.95;0.95;;;11.30;99.90;;;;;;5169625;28;20034;-78
2022/05/04 03:47:58;;;;;;;;;;;11.30;99.90;;;;;;5185038;28;20040;-77
2022/05/04 03:50:33;;;;;;;1.33;1.33;;;11.30;99.90;;;;;;5185425;28;19901;-79
2022/05/04 03:53:04;;;;;;;0.90;0.90;;;11.30;99.90;;;;;;5184901;28;20022;-78
2022/05/04 03:55:38;;;;;;;1.00;1.00;;;11.40;99.90;;;;;;5183643;28;20041;-79
2022/05/04 03:58:12;;;;;;;0.80;0.80;;;11.40;99.90;;;;;;5168360;28;20040;-77
2022/05/04 04:00:44;;;;;;;0.77;0.77;;;11.40;99.90;;;;;;5185356;28;20024;-79
2022/05/04 04:03:16;;;;;;;0.82;0.82;;;11.50;99.90;;;;;;5153851;28;20113;-77
2022/05/04 04:05:51;;;;;;;0.73;0.73;;;11.50;99.90;;;;;;5174610;28;20052;-76
2022/05/04 04:08:24;;;;;;;0.88;0.88;;;11.50;99.90;;;;;;5188065;28;20018;-77
2022/05/04 04:10:57;;;;;;;0.80;0.80;;;11.50;99.90;;;;;;5155100;28;20030;-79
2022/05/04 04:13:31;;;;;;;0.80;0.80;;;11.40;99.90;;;;;;5166566;28;20041;-78
2022/05/04 04:16:05;;;;;;;1.00;1.00;;;11.40;99.90;;;;;;5147520;28;20033;-78
2022/05/04 04:18:36;;;;;;;0.95;0.95;;;11.50;99.90;;;;;;5183508;28;20283;-80
2022/05/04 04:24:02;;;;;;;0.70;0.70;;;11.60;99.90;;;;;;5193971;28;20032;-76
2022/05/04 04:26:37;;;;;;;1.20;1.20;;;11.80;99.90;;;;;;5153482;28;20035;-79
2022/05/04 04:29:08;;;;;;;1.27;1.23;;;11.90;99.90;;;;;;5153153;28;20037;-79
2022/05/04 04:31:42;;;;;;;1.13;1.13;;;12.10;99.90;;;;;;5169249;28;20040;-79
2022/05/04 04:34:13;;;;;;;2.15;2.05;;;12.10;99.90;;;;;;5166144;28;20034;-77
2022/05/04 04:36:45;;;;;;;1.20;1.10;;;12.20;99.90;;;;;;5167096;28;20040;-74
2022/05/04 04:39:23;;;;;;;0.80;0.80;;;12.40;99.90;;;;;;5151501;28;20044;-78
2022/05/04 04:41:55;;;;;;;0.70;0.70;;;12.50;99.90;;;;;;5155493;28;20042;-77
2022/05/04 04:44:28;;;;;;;0.70;0.70;;;12.80;99.90;;;;;;5173374;28;20050;-79
2022/05/04 04:47:02;;;;;;;1.03;1.03;;;12.90;99.90;;;;;;5165460;28;20030;-77
2022/05/04 04:49:33;;;;;;;1.45;1.45;;;13.10;99.90;;;;;;5169129;28;20022;-78
2022/05/04 04:52:05;;;;;;;1.30;1.30;;;13.10;99.90;;;;;;5161927;28;20030;-76
2022/05/04 04:54:36;;;;;;;0.93;0.93;;;13.10;99.90;;;;;;5159311;28;20029;-78
2022/05/04 04:57:08;;;;;;;1.50;1.50;;;13.10;99.90;;;;;;5169321;28;20050;-75
2022/05/04 04:59:39;;;;;;;1.08;1.08;;;13.10;99.90;;;;;;5178372;28;20025;-76
2022/05/04 05:02:14;;;;;;;1.42;1.42;;;13.10;99.90;;;;;;5167895;28;20042;-77
2022/05/04 05:04:45;;;;;;;1.08;1.08;;;13.10;99.90;;;;;;5165367;28;20060;-76
2022/05/04 05:07:19;;;;;;;0.70;0.70;;;13.20;99.90;;;;;;5160213;28;20040;-80
2022/05/04 05:09:53;;;;;;;0.75;0.75;;;13.40;99.90;;;;;;5164918;28;20460;-79
2022/05/04 05:12:24;;;;;;;1.08;1.08;;;13.60;99.90;;;;;;5181896;28;20064;-79
2022/05/04 05:17:53;;;;;;;;;;;13.80;99.90;;;;;;5188838;28;20029;-78
2022/05/04 05:20:27;;;;;;;0.77;0.77;;;13.70;99.90;;;;;;5186385;28;19908;-78
2022/05/04 05:23:04;;;;;;;0.98;0.98;;;13.50;99.90;;;;;;5186234;28;20040;-79
2022/05/04 05:25:35;;;;;;;1.02;1.02;;;13.50;99.90;;;;;;5205847;28;20025;-81
2022/05/04 05:28:10;;;;;;;0.70;0.70;;;13.50;99.90;;;;;;5208845;28;20031;-79
2022/05/04 05:30:42;;;;;;;0.85;0.85;;;13.40;99.90;;;;;;5159235;28;20049;-76
2022/05/04 05:33:19;;;;;;;1.50;1.40;;;13.50;99.90;;;;;;5170450;28;20026;-78
2022/05/04 05:35:59;;;;;;;0.70;0.70;;;13.50;99.90;;;;;;5170690;28;20029;-79
2022/05/04 05:38:33;;;;;;;1.02;1.02;;;13.40;99.90;;;;;;5170793;28;20042;-77
2022/05/04 05:41:05;;;;;;;0.70;0.70;;;13.60;99.90;;;;;;5170220;28;20036;-77
2022/05/04 05:43:38;;;;;;;1.05;1.05;;;13.70;99.90;;;;;;5187276;28;20037;-79
2022/05/04 05:46:12;;;;;;;2.75;2.65;;;13.70;99.90;;;;;;5167158;28;20473;-78
2022/05/04 05:48:43;;;;;;;0.80;0.80;;;14.00;99.90;;;;;;5186686;28;20499;-78
2022/05/04 05:51:14;;;;;;;0.95;0.95;;;14.30;99.90;;;;;;5163437;28;20044;-79
2022/05/04 05:53:51;;;;;;;1.48;1.42;;;14.50;99.90;;;;;;5180731;28;20292;-77
2022/05/04 05:56:22;;;;;;;1.17;1.17;;;14.70;99.90;;;;;;5157749;28;20351;-78
2022/05/04 05:58:56;;;;;;;0.60;0.60;;;15.00;99.90;;;;;;5188914;28;20024;-77
2022/05/04 06:01:27;;;;;;;0.80;0.80;;;15.10;99.90;;;;;;5190646;28;20034;-74
2022/05/04 06:03:58;;;;;;;1.23;1.23;;;15.10;99.90;;;;;;5175219;28;20060;-76
2022/05/04 06:06:32;;;;;;;1.83;1.73;;;15.10;99.90;;;;;;5170692;28;20045;-77
2022/05/04 06:09:06;;;;;;;1.08;1.08;;;15.30;99.90;;;;;;5191918;28;20018;-75
2022/05/04 06:11:37;;;;;;;1.17;1.17;;;15.50;99.90;;;;;;5148581;28;20034;-78
2022/05/04 06:14:11;;;;;;;4.28;1.38;;;15.60;99.90;;;;;;5185964;28;20029;-77
2022/05/04 06:16:45;;;;;;;1.63;1.52;;;15.90;99.90;;;;;;5186809;28;20056;-77
2022/05/04 06:19:18;;;;;;;2.37;1.37;;;15.80;99.90;;;;;;5187179;28;20204;-78
2022/05/04 06:21:49;;;;;;;0.93;0.93;;;16.20;99.90;;;;;;5174731;28;20030;-78
2022/05/04 06:24:23;;;;;;;19.98;2.58;;;16.10;99.90;;;;;;5172445;28;20034;-77
2022/05/04 06:26:57;;;;;;;0.95;0.95;;;15.80;99.90;;;;;;5170162;28;20040;-76
2022/05/04 06:35:14;;;;;;;0.70;0.70;;;15.70;99.90;;;;;;5185895;28;20026;-79
2022/05/04 06:37:46;;;;;;;1.48;1.38;;;15.90;99.90;;;;;;5168971;28;20042;-75
2022/05/04 06:40:17;;;;;;;1.33;1.20;;;16.00;99.90;;;;;;5186712;28;20220;-74
2022/05/04 06:42:48;;;;;;;0.98;0.98;;;16.20;99.90;;;;;;5187936;28;20048;-79
2022/05/04 06:45:20;;;;;;;1.05;1.05;;;16.70;99.90;;;;;;5183942;28;20040;-76
2022/05/04 06:47:51;;;;;;;0.50;0.50;;;16.90;99.90;;;;;;5189612;28;20048;-79
2022/05/04 06:50:22;;;;;;;0.98;0.98;;;16.80;99.90;;;;;;5156402;28;20030;-78
2022/05/04 06:53:02;;;;;;;0.60;0.60;;;17.00;99.90;;;;;;5169133;28;20417;-79
2022/05/04 06:55:40;;;;;;;0.57;0.57;;;17.00;99.90;;;;;;5154174;28;20056;-78
2022/05/04 06:58:15;;;;;;;1.25;1.25;;;17.10;99.90;;;;;;5145988;28;20044;-76
2022/05/04 07:00:48;;;;;;;0.65;0.65;;;17.90;99.90;;;;;;5173466;28;20036;-77
2022/05/04 07:03:23;;;;;;;0.80;0.80;;;18.20;99.90;;;;;;5188709;28;20054;-75
2022/05/04 07:05:58;;;;;;;1.10;1.10;;;18.40;99.90;;;;;;5159103;28;20054;-77
2022/05/04 07:08:32;;;;;;;1.25;1.17;;;18.30;99.90;;;;;;5169893;28;20118;-76
2022/05/04 07:11:09;;;;;;;0.65;0.65;;;18.20;99.90;;;;;;5169051;28;20384;-76
2022/05/04 07:13:43;;;;;;;1.00;1.00;;;18.30;99.90;;;;;;5184429;28;20332;-76
2022/05/04 07:16:19;;;;;;;1.05;1.00;;;18.40;99.90;;;;;;5152131;28;20064;-77
2022/05/04 07:18:51;;;;;;;1.42;1.42;;;19.20;99.90;;;;;;5174806;28;20042;-77
2022/05/04 07:21:22;;;;;;;0.90;0.90;;;19.40;99.90;;;;;;5161738;28;20022;-76
2022/05/04 07:23:53;;;;;;;0.50;0.50;;;19.60;99.90;;;;;;5186154;28;20335;-76
2022/05/04 07:26:25;;;;;;;0.90;0.90;;;19.40;99.90;;;;;;5148161;28;20071;-76
2022/05/04 07:28:56;;;;;;;1.30;1.20;;;19.20;99.90;;;;;;5164740;28;20030;-77
2022/05/04 07:31:29;;;;;;;0.60;0.60;;;18.70;99.90;;;;;;5168159;28;20030;-74
2022/05/04 07:34:03;;;;;;;0.40;0.40;;;18.30;99.90;;;;;;5153042;28;20038;-76
2022/05/04 07:36:35;;;;;;;1.15;1.15;;;18.10;99.90;;;;;;5151124;28;20044;-76
2022/05/04 07:42:21;;;;;;;1.05;1.05;;;17.70;99.90;;;;;;5165177;28;20036;-76
2022/05/04 07:45:11;;;;;;;0.75;0.75;;;17.00;99.90;;;;;;5163296;28;20052;-79
2022/05/04 07:47:46;;;;;;;0.75;0.75;;;17.30;99.90;;;;;;5171609;28;20032;-76
2022/05/04 07:50:17;;;;;;;1.13;1.13;;;18.10;99.90;;;;;;5161607;28;20037;-78
2022/05/04 07:52:51;;;;;;;0.73;0.73;;;19.10;99.90;;;;;;5183312;28;20021;-78
2022/05/04 07:55:22;;;;;;;0.57;0.50;;;19.60;99.90;;;;;;5183131;28;20208;-78
2022/05/04 07:57:53;;;;;;;0.50;0.50;;;20.10;99.90;;;;;;5162769;28;20030;-77
2022/05/04 08:06:14;;;;;;;0.80;0.80;;;21.50;99.90;;;;;;5164693;28;20052;-76
2022/05/04 08:08:46;;;;;;;0.63;0.63;;;22.10;99.90;;;;;;5171793;28;20289;-77
2022/05/04 08:11:20;;;;;;;1.15;1.15;;;22.60;99.90;;;;;;5163565;28;20334;-76
2022/05/04 08:13:53;;;;;;;0.90;0.90;;;23.00;99.90;;;;;;5169140;28;20056;-78
2022/05/04 08:16:29;;;;;;;0.60;0.60;;;23.00;99.90;;;;;;5169213;28;20067;-77
2022/05/04 08:19:03;;;;;;;0.68;0.68;;;23.10;99.90;;;;;;5160985;28;20255;-78
2022/05/04 08:21:38;;;;;;;0.52;0.52;;;23.20;99.90;;;;;;5163208;28;20044;-79
2022/05/04 08:24:09;;;;;;;0.60;0.60;;;23.00;99.90;;;;;;5180331;28;20044;-76
2022/05/04 08:26:44;;;;;;;0.95;0.95;;;23.20;99.90;;;;;;5163560;28;20220;-77
2022/05/04 08:29:15;;;;;;;0.30;0.30;;;23.50;99.90;;;;;;5157868;28;20347;-76
2022/05/04 08:31:49;;;;;;;0.40;0.40;;;23.60;99.90;;;;;;5137511;28;20053;-75
2022/05/04 08:34:22;;;;;;;25.27;1.48;;;23.10;99.90;;;;;;5152627;28;20040;-78
2022/05/04 08:37:01;;;;;;;0.63;0.63;;;23.00;99.90;;;;;;5178256;28;20053;-76
2022/05/04 08:39:35;;;;;;;1.17;1.17;;;22.90;99.90;;;;;;5180817;28;20193;-78
2022/05/04 08:42:09;;;;;;;0.50;0.50;;;23.10;99.90;;;;;;5173152;28;20044;-76
2022/05/04 08:44:42;;;;;;;0.60;0.60;;;23.90;99.90;;;;;;5181017;28;20038;-79
2022/05/04 08:47:15;;;;;;;0.88;0.88;;;24.20;99.90;;;;;;5175428;28;20267;-77
2022/05/04 08:49:49;;;;;;;1.25;1.20;;;25.10;99.90;;;;;;5178245;28;20053;-77
2022/05/04 08:52:29;;;;;;;1.08;0.85;;;25.30;99.90;;;;;;5177764;28;20068;-77
2022/05/04 08:55:05;;;;;;;0.82;0.82;;;24.30;99.90;;;;;;5159047;28;20235;-78
2022/05/04 08:57:37;;;;;;;0.40;0.40;;;24.20;99.90;;;;;;5179390;28;20231;-81
2022/05/04 09:00:10;;;;;;;3.72;2.15;;;24.90;99.90;;;;;;5163880;28;20026;-79
2022/05/04 09:02:42;;;;;;;0.68;0.68;;;25.20;99.90;;;;;;5169213;28;20038;-80
2022/05/04 09:05:22;;;;;;;0.40;0.40;;;25.20;99.90;;;;;;5160300;28;20069;-80
2022/05/04 09:07:55;;;;;;;0.68;0.68;;;25.90;99.90;;;;;;5172195;28;20160;-80
2022/05/04 09:10:34;;;;;;;1.08;1.08;;;25.40;99.90;;;;;;5181236;28;20345;-79
2022/05/04 09:13:08;;;;;;;0.70;0.70;;;25.10;99.90;;;;;;5164537;28;20040;-79
2022/05/04 09:15:44;;;;;;;0.63;0.63;;;26.40;99.90;;;;;;5181263;28;20022;-80
2022/05/04 09:18:19;;;;;;;1.15;1.15;;;27.10;99.90;;;;;;5180806;28;20039;-79
2022/05/04 09:20:58;;;;;;;0.65;0.65;;;27.50;99.90;;;;;;5161561;28;20038;-79
2022/05/04 09:23:33;;;;;;;0.65;0.65;;;28.30;99.90;;;;;;5163683;28;20040;-79
2022/05/04 09:26:07;;;;;;;;;;;28.80;99.90;;;;;;5133134;28;20030;-80
2022/05/04 09:28:38;;;;;;;0.40;0.40;;;27.90;99.90;;;;;;5171390;28;19905;-80
2022/05/04 09:31:10;;;;;;;0.30;0.30;;;28.10;99.90;;;;;;5180200;28;20238;-80
2022/05/04 09:33:42;;;;;;;0.50;0.50;;;27.50;99.90;;;;;;5161077;28;20341;-80
2022/05/04 09:36:14;;;;;;;0.73;0.73;;;27.80;99.90;;;;;;5163284;28;20338;-80
2022/05/04 09:47:20;;;;;;;0.73;0.73;;;26.00;99.90;;;;;;5162420;28;20037;-80
2022/05/04 09:50:03;;;;;;;1.13;0.98;;;26.00;99.90;;;;;;5146240;28;20279;-81
2022/05/04 09:52:50;;;;;;;1.77;1.67;;;26.30;99.90;;;;;;5174078;28;20339;-80
2022/05/04 09:55:29;;;;;;;0.82;0.82;;;26.30;99.90;;;;;;5172940;28;20392;-79
2022/05/04 09:58:02;;;;;;;0.70;0.70;;;26.30;99.90;;;;;;5145940;28;20034;-79
2022/05/04 10:00:41;;;;;;;0.60;0.60;;;26.00;99.90;;;;;;5128272;28;20045;-79
2022/05/04 10:03:18;;;;;;;7.95;1.13;;;26.50;99.90;;;;;;5157451;28;20037;-79
2022/05/04 10:05:50;;;;;;;0.77;0.77;;;26.70;99.90;;;;;;5128028;28;20046;-81
2022/05/04 10:08:23;;;;;;;1.08;0.98;;;27.30;99.90;;;;;;5161582;28;20232;-82
2022/05/04 10:10:55;;;;;;;2.88;0.98;;;27.70;99.90;;;;;;5132842;28;20324;-81
2022/05/04 10:13:30;;;;;;;1.38;1.27;;;28.90;99.90;;;;;;5148149;28;20254;-79
2022/05/04 10:16:05;;;;;;;2.17;1.63;;;29.90;99.90;;;;;;5164584;28;20215;-78
2022/05/04 10:18:45;;;;;;;1.15;1.15;;;28.90;99.90;;;;;;5161523;28;20074;-80
2022/05/04 10:21:24;;;;;;;1.08;1.00;;;27.90;99.90;;;;;;5151265;28;20324;-80
2022/05/04 10:24:03;;;;;;;1.17;1.08;;;27.40;99.90;;;;;;5166940;28;20044;-80
2022/05/04 10:26:40;;;;;;;0.93;0.93;;;26.90;99.90;;;;;;5156831;28;20050;-80
2022/05/04 10:32:45;;;;;;;0.88;0.88;;;26.40;99.90;;;;;;5182704;28;20026;-80
2022/05/04 10:35:21;;;;;;;0.95;0.95;;;26.80;99.90;;;;;;5178276;28;20268;-78
2022/05/04 10:38:02;;;;;;;1.98;1.45;;;28.00;99.90;;;;;;5155438;28;20320;-78
2022/05/04 10:40:36;;;;;;;1.00;1.00;;;28.40;99.90;;;;;;5162617;28;20189;-80
2022/05/04 10:43:29;;;;;;;0.95;0.70;;;29.10;99.90;;;;;;5159699;28;20670;-78
2022/05/04 10:46:16;;;;;;;1.00;1.00;;;29.60;99.90;;;;;;5142022;28;20196;-77
2022/05/04 10:48:51;;;;;;;1.25;1.15;;;31.30;99.90;;;;;;5135265;28;20034;-80
2022/05/04 10:51:26;;;;;;;1.20;1.20;;;32.00;99.90;;;;;;5144581;28;20050;-79
2022/05/04 10:53:59;;;;;;;0.98;0.98;;;33.20;99.90;;;;;;5154154;28;20034;-81
2022/05/04 10:56:47;;;;;;;1.00;1.00;;;33.40;99.90;;;;;;5145361;28;20344;-81
2022/05/04 10:59:35;;;;;;;0.85;0.85;;;34.30;99.90;;;;;;5172236;28;20032;-80
2022/05/04 11:02:17;;;;;;;1.42;1.33;;;33.40;99.90;;;;;;5146141;28;20236;-80
2022/05/04 11:04:58;;;;;;;1.27;1.27;;;33.50;99.90;;;;;;5135121;28;20100;-80
2022/05/04 11:07:35;;;;;;;1.30;1.30;;;33.70;99.90;;;;;;5150678;28;20263;-81
2022/05/04 11:10:07;;;;;;;1.15;1.15;;;34.10;99.90;;;;;;5143828;28;20040;-80
2022/05/04 11:12:46;;;;;;;1.48;1.40;;;34.40;99.90;;;;;;5155487;28;20339;-79
2022/05/04 11:15:17;;;;;;;1.58;1.48;;;34.80;99.90;;;;;;5147989;28;20038;-81
2022/05/04 11:17:51;;;;;;;1.45;1.35;;;34.20;99.90;;;;;;5160203;28;20033;-80
2022/05/04 11:20:26;;;;;;;0.90;0.90;;;33.70;99.90;;;;;;5160316;28;20353;-81
2022/05/04 11:22:57;;;;;;;0.82;0.82;;;34.60;99.90;;;;;;5161835;28;20036;-80
2022/05/04 11:25:31;;;;;;;0.98;0.98;;;34.70;99.90;;;;;;5172398;28;20042;-78
2022/05/04 11:28:02;;;;;;;;;;;33.60;99.90;;;;;;5164873;28;20242;-80
2022/05/04 11:30:40;;;;;;;1.52;1.42;;;34.30;99.90;;;;;;5182023;28;19919;-80
2022/05/04 11:33:18;;;;;;;0.93;0.93;;;34.40;99.90;;;;;;5165932;28;20212;-79
2022/05/04 11:35:54;;;;;;;0.70;0.70;;;34.60;99.90;;;;;;5182577;28;20211;-81
2022/05/04 11:38:26;;;;;;;1.20;1.10;;;36.10;98.70;;;;;;5149557;28;20346;-79
2022/05/04 11:40:59;;;;;;;1.25;1.25;;;36.90;98.00;;;;;;5162096;28;20362;-79
2022/05/04 11:43:33;;;;;;;;;;;33.90;98.50;;;;;;5161784;28;20038;-79
2022/05/04 11:46:12;;;;;;;1.40;1.30;;;31.70;99.90;;;;;;5154798;28;19912;-79
2022/05/04 11:48:47;;;;;;;0.82;0.82;;;29.80;99.90;;;;;;5159659;28;20036;-80
2022/05/04 11:51:21;;;;;;;1.17;1.08;;;28.80;99.90;;;;;;5183866;28;20482;-81
2022/05/04 11:53:55;;;;;;;1.40;1.38;;;28.50;99.90;;;;;;5189023;28;20024;-79
2022/05/04 11:56:28;;;;;;;2.72;1.92;;;29.40;99.90;;;;;;5171057;28;20053;-80
2022/05/04 11:59:03;;;;;;;0.98;0.98;;;29.20;99.90;;;;;;5153264;28;20032;-79
2022/05/04 12:01:35;;;;;;;1.23;1.23;;;28.00;99.90;;;;;;5181702;28;20036;-80
2022/05/04 12:04:13;;;;;;;1.38;1.38;;;27.20;99.90;;;;;;5179121;28;20032;-79
2022/05/04 12:06:49;;;;;;;1.08;1.08;;;26.90;99.90;;;;;;5121074;28;20065;-78
2022/05/04 12:09:21;;;;;;;0.85;0.85;;;26.50;99.90;;;;;;5145758;28;20035;-80
2022/05/04 12:11:52;;;;;;;0.73;0.73;;;26.00;99.90;;;;;;5146238;28;20034;-79
2022/05/04 12:14:31;;;;;;;0.85;0.85;;;25.90;99.90;;;;;;5144753;28;20030;-79
2022/05/04 12:17:05;;;;;;;1.73;1.63;;;25.90;99.90;;;;;;5147129;28;20038;-78
2022/05/04 12:19:38;;;;;;;0.98;0.93;;;25.10;99.90;;;;;;5151092;28;20046;-78
2022/05/04 12:22:11;;;;;;;1.40;1.33;;;24.50;99.90;;;;;;5164602;28;20259;-74
2022/05/04 12:24:43;;;;;;;3.03;1.23;;;23.50;99.90;;;;;;5171381;28;20061;-75
2022/05/04 12:27:15;;;;;;;0.60;0.60;;;22.70;99.90;;;;;;5174365;28;20311;-78
2022/05/04 12:35:33;;;;;;;1.45;1.35;;;21.80;99.90;;;;;;5154198;28;20256;-79
2022/05/04 12:38:06;;;;;;;0.40;0.40;;;21.20;99.90;;;;;;5156597;28;20292;-77
2022/05/04 12:40:40;;;;;;;0.50;0.50;;;20.50;99.90;;;;;;5144554;28;20133;-78
2022/05/04 12:43:14;;;;;;;1.27;0.90;;;19.40;99.90;;;;;;5150928;28;20215;-78
2022/05/04 12:45:47;;;;;;;0.50;0.50;;;18.00;99.90;;;;;;5163323;28;20231;-77
2022/05/04 12:48:25;;;;;;;0.50;0.50;;;17.10;99.90;;;;;;5144701;28;20277;-75
2022/05/04 12:50:59;;;;;;;0.93;0.93;;;16.40;99.90;;;;;;5142211;28;20037;-77
2022/05/04 12:53:33;;;;;;;0.68;0.68;;;15.90;99.90;;;;;;5180197;28;20222;-78
2022/05/04 12:59:01;;;;;;;0.60;0.60;;;15.20;99.90;;;;;;5179411;28;20032;-76
2022/05/04 13:01:33;;;;;;;;;;;15.10;99.90;;;;;;5175164;28;20308;-77
2022/05/04 13:04:04;;;;;;;0.80;0.80;;;15.30;99.90;;;;;;5177413;28;20183;-76
2022/05/04 13:06:35;;;;;;;0.63;0.63;;;15.30;99.90;;;;;;5174634;28;20056;-79
2022/05/04 13:09:12;;;;;;;0.98;0.98;;;15.50;99.90;;;;;;5156307;28;20161;-79
2022/05/04 13:11:43;;;;;;;1.75;1.00;;;15.50;99.90;;;;;;5153887;28;20049;-78
2022/05/04 13:14:14;;;;;;;1.58;1.30;;;15.40;99.90;;;;;;5155528;28;20038;-79
2022/05/04 13:16:46;;;;;;;1.00;1.00;;;15.30;99.90;;;;;;5151188;28;20287;-75
2022/05/04 13:19:20;;;;;;;1.17;1.00;;;15.30;99.90;;;;;;5173432;28;20052;-78
2022/05/04 13:21:53;;;;;;;0.80;0.80;;;15.20;99.90;;;;;;5179222;28;20041;-77
2022/05/04 13:24:25;;;;;;;0.88;0.88;;;15.10;99.90;;;;;;5177921;28;20224;-78
2022/05/04 13:26:56;;;;;;;0.68;0.68;;;15.20;99.90;;;;;;5162924;28;20026;-77
2022/05/04 13:29:30;;;;;;;0.98;0.98;;;15.10;99.90;;;;;;5157085;28;20289;-77
2022/05/04 13:32:04;;;;;;;0.90;0.90;;;15.10;99.90;;;;;;5138232;28;20029;-78
2022/05/04 13:34:35;;;;;;;1.00;1.00;;;15.10;99.90;;;;;;5167639;28;20080;-78
2022/05/04 13:37:09;;;;;;;0.57;0.57;;;15.10;99.90;;;;;;5157338;28;20312;-77
2022/05/04 13:39:40;;;;;;;0.50;0.50;;;15.10;99.90;;;;;;5175868;28;20029;-78
2022/05/04 13:42:12;;;;;;;0.50;0.50;;;15.20;99.90;;;;;;5159710;28;20044;-78
2022/05/04 13:44:44;;;;;;;0.85;0.85;;;15.30;99.90;;;;;;5159092;28;20038;-77
2022/05/04 13:47:16;;;;;;;2.67;2.38;;;15.20;99.90;;;;;;5155360;28;20216;-77
2022/05/04 13:49:47;;;;;;;2.60;1.67;;;15.20;99.90;;;;;;5175029;28;20227;-77
2022/05/04 13:55:11;;;;;;;1.52;1.52;;;14.90;99.90;;;;;;5175185;28;20188;-78
2022/05/04 13:57:45;;;;;;;0.90;0.90;;;14.80;99.90;;;;;;5174488;28;20021;-77
2022/05/04 14:00:16;;;;;;;1.88;1.77;;;15.00;99.90;;;;;;5161304;28;20038;-78
2022/05/04 14:02:50;;;;;;;6.38;2.28;;;15.20;99.90;;;;;;5161015;28;20034;-77
2022/05/04 14:05:23;;;;;;;0.90;0.90;;;15.40;99.90;;;;;;5165994;28;20060;-77
2022/05/04 14:07:58;;;;;;;0.88;0.88;;;15.70;99.90;;;;;;5182280;28;20032;-77
2022/05/04 14:10:30;;;;;;;0.50;0.50;;;16.00;99.90;;;;;;5163421;28;20022;-78
2022/05/04 14:13:02;;;;;;;0.60;0.60;;;16.40;99.90;;;;;;5150703;28;20247;-78
2022/05/04 14:15:34;;;;;;;0.60;0.60;;;16.70;99.90;;;;;;5160753;28;20048;-77
2022/05/04 14:18:06;;;;;;;0.70;0.70;;;17.00;99.90;;;;;;5162664;28;20046;-76